createdAt,value
2023-04-22T00:00:10.021Z,100.00
2023-04-22T00:02:39.903Z,100.00
2023-04-22T00:05:14.007Z,100.00
2023-04-22T00:07:44.412Z,100.00
2023-04-22T00:10:15.057Z,100.00
2023-04-22T00:12:44.084Z,100.00
2023-04-22T00:15:13.412Z,100.00
2023-04-22T00:17:42.905Z,100.00
2023-04-22T00:20:12.808Z,100.00
2023-04-22T00:22:41.643Z,100.00
2023-04-22T00:25:10.998Z,100.00
2023-04-22T00:27:41.370Z,100.00
2023-04-22T00:30:10.992Z,100.00
2023-04-22T00:32:39.929Z,100.00
2023-04-22T00:35:09.918Z,100.00
2023-04-22T00:37:38.770Z,100.00
2023-04-22T00:40:09.076Z,100.00
2023-04-22T00:42:38.736Z,100.00
2023-04-22T00:45:12.467Z,100.00
2023-04-22T00:47:41.986Z,100.00
2023-04-22T00:50:11.143Z,100.00
2023-04-22T00:52:39.703Z,100.00
2023-04-22T00:55:09.396Z,100.00
2023-04-22T00:57:38.906Z,100.00
2023-04-22T01:00:11.147Z,100.00
2023-04-22T01:02:40.804Z,100.00
2023-04-22T01:05:10.681Z,100.00
2023-04-22T01:07:39.483Z,100.00
2023-04-22T01:10:09.561Z,100.00
2023-04-22T01:12:38.490Z,100.00
2023-04-22T01:15:10.153Z,100.00
2023-04-22T01:17:39.167Z,100.00
2023-04-22T01:20:10.645Z,100.00
2023-04-22T01:22:43.087Z,100.00
2023-04-22T01:25:14.045Z,100.00
2023-04-22T01:27:43.125Z,100.00
2023-04-22T01:30:12.941Z,100.00
2023-04-22T01:32:42.123Z,100.00
2023-04-22T01:35:11.786Z,100.00
2023-04-22T01:37:41.266Z,100.00
2023-04-22T01:40:13.107Z,100.00
2023-04-22T01:42:43.476Z,100.00
2023-04-22T01:45:13.318Z,100.00
2023-04-22T01:47:42.252Z,100.00
2023-04-22T01:50:11.923Z,100.00
2023-04-22T01:52:41.223Z,100.00
2023-04-22T01:55:11.062Z,100.00
2023-04-22T01:57:39.954Z,100.00
2023-04-22T02:00:11.744Z,100.00
2023-04-22T02:02:47.877Z,100.00
2023-04-22T02:05:17.230Z,100.00
2023-04-22T02:07:47.792Z,100.00
2023-04-22T02:10:18.870Z,100.00
2023-04-22T02:12:48.039Z,100.00
2023-04-22T02:15:18.456Z,100.00
2023-04-22T02:17:47.616Z,100.00
2023-04-22T02:20:16.655Z,100.00
2023-04-22T02:22:46.537Z,100.00
2023-04-22T02:25:15.513Z,100.00
2023-04-22T02:27:44.600Z,100.00
2023-04-22T02:30:14.470Z,100.00
2023-04-22T02:32:44.954Z,100.00
2023-04-22T02:35:13.956Z,100.00
2023-04-22T02:37:43.675Z,100.00
2023-04-22T02:40:13.475Z,100.00
2023-04-22T02:42:42.419Z,100.00
2023-04-22T02:45:12.415Z,100.00
2023-04-22T02:47:42.727Z,100.00
2023-04-22T02:50:13.833Z,100.00
2023-04-22T02:52:42.415Z,100.00
2023-04-22T02:55:11.622Z,100.00
2023-04-22T02:57:41.058Z,100.00
2023-04-22T03:00:11.569Z,100.00
2023-04-22T03:02:40.723Z,100.00
2023-04-22T03:05:14.833Z,100.00
2023-04-22T03:07:43.436Z,100.00
2023-04-22T03:10:12.926Z,100.00
2023-04-22T03:12:42.298Z,100.00
2023-04-22T03:15:11.867Z,100.00
2023-04-22T03:17:42.137Z,100.00
2023-04-22T03:20:16.369Z,100.00
2023-04-22T03:22:44.904Z,100.00
2023-04-22T03:25:15.601Z,100.00
2023-04-22T03:27:50.352Z,100.00
2023-04-22T03:30:21.042Z,100.00
2023-04-22T03:32:50.633Z,100.00
2023-04-22T03:35:49.282Z,100.00
2023-04-22T03:38:18.605Z,100.00
2023-04-22T03:40:47.463Z,100.00
2023-04-22T03:43:28.029Z,100.00
2023-04-22T03:46:10.084Z,100.00
2023-04-22T03:48:46.392Z,100.00
2023-04-22T03:51:29.200Z,100.00
2023-04-22T03:54:00.179Z,100.00
2023-04-22T03:56:31.503Z,100.00
2023-04-22T03:59:02.631Z,100.00
2023-04-22T04:01:31.735Z,100.00
2023-04-22T04:04:30.778Z,100.00
2023-04-22T04:07:04.265Z,100.00
2023-04-22T04:09:33.279Z,100.00
2023-04-22T04:12:03.475Z,100.00
2023-04-22T04:14:37.406Z,100.00
2023-04-22T04:17:09.805Z,100.00
2023-04-22T04:19:39.340Z,100.00
2023-04-22T04:22:10.746Z,100.00
2023-04-22T04:24:48.781Z,100.00
2023-04-22T04:27:24.096Z,100.00
2023-04-22T04:29:56.239Z,100.00
2023-04-22T04:32:51.269Z,100.00
2023-04-22T04:35:20.768Z,100.00
2023-04-22T04:37:55.467Z,100.00
2023-04-22T04:40:25.183Z,100.00
2023-04-22T04:43:08.506Z,100.00
2023-04-22T04:45:57.958Z,100.00
2023-04-22T04:48:36.794Z,100.00
2023-04-22T04:51:10.260Z,100.00
2023-04-22T04:53:46.177Z,100.00
2023-04-22T04:56:15.312Z,100.00
2023-04-22T04:58:44.028Z,100.00
2023-04-22T05:01:26.118Z,100.00
2023-04-22T05:03:56.648Z,100.00
2023-04-22T05:06:27.147Z,100.00
2023-04-22T05:09:03.440Z,100.00
2023-04-22T05:11:32.668Z,100.00
2023-04-22T05:14:04.337Z,100.00
2023-04-22T05:16:36.769Z,100.00
2023-04-22T05:19:06.322Z,100.00
2023-04-22T05:21:36.338Z,100.00
2023-04-22T05:24:08.204Z,100.00
2023-04-22T05:26:37.638Z,100.00
2023-04-22T05:29:12.839Z,100.00
2023-04-22T05:31:41.396Z,100.00
2023-04-22T05:34:10.752Z,100.00
2023-04-22T05:36:40.230Z,100.00
2023-04-22T05:39:11.306Z,100.00
2023-04-22T05:41:40.814Z,100.00
2023-04-22T05:44:12.390Z,100.00
2023-04-22T05:46:41.765Z,100.00
2023-04-22T05:49:10.861Z,100.00
2023-04-22T05:51:58.687Z,100.00
2023-04-22T05:54:35.628Z,100.00
2023-04-22T05:57:05.878Z,100.00
2023-04-22T05:59:35.180Z,100.00
2023-04-22T06:02:06.764Z,100.00
2023-04-22T06:04:37.531Z,100.00
2023-04-22T06:07:07.675Z,100.00
2023-04-22T06:09:38.120Z,100.00
2023-04-22T06:12:07.970Z,100.00
2023-04-22T06:14:38.484Z,100.00
2023-04-22T06:17:08.626Z,99.25
2023-04-22T06:19:38.661Z,98.69
2023-04-22T06:22:07.845Z,97.50
2023-04-22T06:24:38.234Z,94.62
2023-04-22T06:27:06.921Z,94.49
2023-04-22T06:29:36.318Z,94.93
2023-04-22T06:32:05.429Z,93.67
2023-04-22T06:34:34.510Z,93.85
2023-04-22T06:37:04.939Z,93.38
2023-04-22T06:39:35.071Z,95.41
2023-04-22T06:42:26.466Z,94.80
2023-04-22T06:45:15.683Z,94.10
2023-04-22T06:48:07.629Z,89.98
2023-04-22T06:50:55.913Z,90.34
2023-04-22T06:53:25.870Z,89.49
2023-04-22T06:55:54.695Z,88.95
2023-04-22T06:58:25.181Z,88.49
2023-04-22T07:00:54.923Z,86.91
2023-04-22T07:03:24.112Z,87.55
2023-04-22T07:06:03.061Z,85.86
2023-04-22T07:08:34.527Z,82.49
2023-04-22T07:11:04.288Z,79.06
2023-04-22T07:13:40.137Z,82.27
2023-04-22T07:16:08.846Z,80.20
2023-04-22T07:18:38.782Z,82.94
2023-04-22T07:21:07.702Z,79.52
2023-04-22T07:23:36.669Z,70.44
2023-04-22T07:26:05.886Z,70.83
2023-04-22T07:28:34.448Z,60.96
2023-04-22T07:31:05.146Z,48.98
2023-04-22T07:33:33.987Z,42.00
2023-04-22T07:36:03.053Z,41.08
2023-04-22T07:38:31.900Z,35.05
2023-04-22T07:41:01.046Z,32.60
2023-04-22T07:43:29.580Z,31.43
2023-04-22T07:45:58.487Z,28.88
2023-04-22T07:48:28.981Z,29.23
2023-04-22T07:50:57.954Z,27.34
2023-04-22T07:53:26.897Z,26.51
2023-04-22T07:55:58.370Z,26.65
2023-04-22T07:58:28.313Z,25.54
2023-04-22T08:00:57.316Z,28.14
2023-04-22T08:03:26.587Z,30.00
2023-04-22T08:05:58.419Z,29.99
2023-04-22T08:08:27.575Z,31.29
2023-04-22T08:10:57.328Z,34.00
2023-04-22T08:13:26.425Z,34.46
2023-04-22T08:15:55.387Z,33.78
2023-04-22T08:18:24.374Z,33.95
2023-04-22T08:20:53.286Z,36.30
2023-04-22T08:23:23.694Z,36.54
2023-04-22T08:25:52.237Z,35.52
2023-04-22T08:28:21.525Z,37.29
2023-04-22T08:30:50.493Z,35.31
2023-04-22T08:33:20.561Z,35.83
2023-04-22T08:35:49.653Z,35.75
2023-04-22T08:38:18.727Z,34.31
2023-04-22T08:40:49.462Z,36.32
2023-04-22T08:43:18.553Z,36.76
2023-04-22T08:45:47.601Z,38.08
2023-04-22T08:48:17.328Z,41.51
2023-04-22T08:50:48.632Z,42.75
2023-04-22T08:53:17.619Z,41.95
2023-04-22T08:55:46.704Z,41.46
2023-04-22T08:58:17.176Z,35.77
2023-04-22T09:00:46.414Z,37.58
2023-04-22T09:03:15.670Z,37.19
2023-04-22T09:05:44.937Z,38.85
2023-04-22T09:08:14.519Z,36.03
2023-04-22T09:10:43.140Z,37.66
2023-04-22T09:13:12.211Z,34.88
2023-04-22T09:15:42.617Z,34.95
2023-04-22T09:18:12.001Z,29.73
2023-04-22T09:20:43.866Z,28.25
2023-04-22T09:23:14.094Z,26.59
2023-04-22T09:25:43.048Z,23.32
2023-04-22T09:28:14.032Z,23.86
2023-04-22T09:30:47.080Z,22.31
2023-04-22T09:33:17.556Z,22.23
2023-04-22T09:35:46.629Z,19.86
2023-04-22T09:38:15.779Z,20.84
2023-04-22T09:40:45.537Z,22.81
2023-04-22T09:43:16.638Z,21.93
2023-04-22T09:45:47.033Z,22.24
2023-04-22T09:48:18.488Z,19.95
2023-04-22T09:50:49.472Z,20.17
2023-04-22T09:53:19.999Z,20.30
2023-04-22T09:55:50.123Z,19.17
2023-04-22T09:58:20.069Z,19.56
2023-04-22T10:00:52.117Z,19.23
2023-04-22T10:03:21.386Z,19.66
2023-04-22T10:05:50.372Z,19.18
2023-04-22T10:08:19.454Z,17.65
2023-04-22T10:10:48.346Z,18.04
2023-04-22T10:13:17.367Z,17.45
2023-04-22T10:15:52.144Z,16.30
2023-04-22T10:18:24.504Z,17.57
2023-04-22T10:20:55.349Z,17.79
2023-04-22T10:23:25.614Z,17.78
2023-04-22T10:25:56.374Z,17.72
2023-04-22T10:28:27.102Z,16.69
2023-04-22T10:30:57.484Z,15.56
2023-04-22T10:33:40.268Z,16.72
2023-04-22T10:36:13.179Z,16.76
2023-04-22T10:38:43.099Z,16.03
2023-04-22T10:41:16.419Z,14.69
2023-04-22T10:43:48.925Z,15.36
2023-04-22T10:46:54.976Z,14.60
2023-04-22T10:49:26.153Z,14.07
2023-04-22T10:51:56.073Z,14.79
2023-04-22T10:55:01.646Z,14.81
2023-04-22T10:57:41.793Z,13.84
2023-04-22T11:00:52.587Z,13.80
2023-04-22T11:03:28.488Z,13.72
2023-04-22T11:06:26.611Z,13.86
2023-04-22T11:09:12.959Z,12.78
2023-04-22T11:11:42.411Z,13.07
2023-04-22T11:14:11.902Z,13.16
2023-04-22T11:16:40.655Z,13.12
2023-04-22T11:19:09.862Z,13.07
2023-04-22T11:21:40.446Z,13.35
2023-04-22T11:24:11.390Z,13.21
2023-04-22T11:26:41.511Z,12.82
2023-04-22T11:29:10.621Z,13.56
2023-04-22T11:31:39.723Z,12.12
2023-04-22T11:34:10.734Z,12.81
2023-04-22T11:36:44.543Z,13.17
2023-04-22T11:39:15.320Z,13.28
2023-04-22T11:41:44.541Z,13.52
2023-04-22T11:44:15.279Z,12.54
2023-04-22T11:46:45.820Z,12.16
2023-04-22T11:49:16.332Z,13.07
2023-04-22T11:51:58.940Z,12.47
2023-04-22T11:54:32.887Z,12.68
2023-04-22T11:57:06.218Z,12.84
2023-04-22T11:59:35.379Z,12.61
2023-04-22T12:02:06.945Z,12.90
2023-04-22T12:04:38.518Z,12.42
2023-04-22T12:07:09.254Z,12.91
2023-04-22T12:09:38.451Z,13.99
2023-04-22T12:12:08.897Z,14.33
2023-04-22T12:14:37.873Z,13.58
2023-04-22T12:17:06.988Z,13.79
2023-04-22T12:19:37.486Z,14.92
2023-04-22T12:22:06.315Z,14.64
2023-04-22T12:24:36.826Z,14.74
2023-04-22T12:27:06.855Z,14.97
2023-04-22T12:29:35.885Z,16.59
2023-04-22T12:32:04.886Z,18.25
2023-04-22T12:34:33.549Z,18.82
2023-04-22T12:37:02.541Z,18.40
2023-04-22T12:39:32.403Z,17.11
2023-04-22T12:42:02.841Z,16.21
2023-04-22T12:44:31.999Z,15.22
2023-04-22T12:47:00.991Z,16.27
2023-04-22T12:49:29.700Z,16.65
2023-04-22T12:51:58.690Z,18.05
2023-04-22T12:54:27.895Z,20.22
2023-04-22T12:56:57.993Z,19.48
2023-04-22T12:59:28.524Z,18.18
2023-04-22T13:01:57.455Z,18.39
2023-04-22T13:04:26.652Z,18.59
2023-04-22T13:06:57.487Z,18.25
2023-04-22T13:09:27.187Z,18.83
2023-04-22T13:11:56.218Z,19.96
2023-04-22T13:14:25.386Z,22.16
2023-04-22T13:16:55.463Z,24.65
2023-04-22T13:19:27.113Z,25.00
2023-04-22T13:21:56.222Z,23.85
2023-04-22T13:24:25.216Z,23.26
2023-04-22T13:26:54.789Z,22.25
2023-04-22T13:29:23.797Z,20.51
2023-04-22T13:31:55.482Z,20.14
2023-04-22T13:34:24.609Z,19.87
2023-04-22T13:36:53.602Z,20.81
2023-04-22T13:39:24.677Z,20.25
2023-04-22T13:41:54.189Z,20.85
2023-04-22T13:44:23.110Z,20.38
2023-04-22T13:46:52.050Z,19.98
2023-04-22T13:49:22.468Z,19.92
2023-04-22T13:51:51.446Z,19.64
2023-04-22T13:54:20.480Z,19.41
2023-04-22T13:56:49.637Z,20.44
2023-04-22T13:59:18.768Z,20.53
2023-04-22T14:01:47.281Z,21.23
2023-04-22T14:04:16.347Z,20.92
2023-04-22T14:06:46.849Z,20.99
2023-04-22T14:09:15.889Z,21.70
2023-04-22T14:11:45.114Z,21.73
2023-04-22T14:14:14.104Z,22.17
2023-04-22T14:16:43.062Z,22.69
2023-04-22T14:19:12.407Z,22.24
2023-04-22T14:21:41.871Z,22.20
2023-04-22T14:24:12.387Z,24.10
2023-04-22T14:26:42.615Z,23.46
2023-04-22T14:29:11.706Z,22.68
2023-04-22T14:31:40.282Z,20.40
2023-04-22T14:34:09.427Z,20.44
2023-04-22T14:36:38.556Z,20.96
2023-04-22T14:39:07.888Z,20.24
2023-04-22T14:41:38.219Z,20.42
2023-04-22T14:44:07.187Z,19.79
2023-04-22T14:46:35.811Z,21.97
2023-04-22T14:49:06.304Z,22.52
2023-04-22T14:51:36.642Z,21.41
2023-04-22T14:54:06.252Z,21.22
2023-04-22T14:56:34.887Z,20.06
2023-04-22T14:59:05.429Z,18.59
2023-04-22T15:01:34.516Z,17.85
2023-04-22T15:04:03.833Z,18.70
2023-04-22T15:06:33.762Z,19.26
2023-04-22T15:09:02.932Z,18.86
2023-04-22T15:11:31.716Z,17.05
2023-04-22T15:14:00.853Z,17.85
2023-04-22T15:16:31.537Z,18.06
2023-04-22T15:19:01.894Z,17.88
2023-04-22T15:21:30.864Z,17.22
2023-04-22T15:23:59.806Z,16.65
2023-04-22T15:26:28.952Z,16.21
2023-04-22T15:28:57.901Z,15.79
2023-04-22T15:31:27.343Z,16.41
2023-04-22T15:33:57.778Z,16.49
2023-04-22T15:36:26.717Z,16.27
2023-04-22T15:38:57.339Z,18.34
2023-04-22T15:41:27.058Z,19.01
2023-04-22T15:43:55.744Z,17.79
2023-04-22T15:46:24.795Z,17.35
2023-04-22T15:48:53.812Z,17.53
2023-04-22T15:51:24.306Z,17.56
2023-04-22T15:53:54.325Z,17.34
2023-04-22T15:56:23.377Z,17.07
2023-04-22T15:58:52.325Z,17.36
2023-04-22T16:01:21.476Z,17.68
2023-04-22T16:03:51.212Z,18.89
2023-04-22T16:06:20.341Z,19.44
2023-04-22T16:08:51.050Z,19.16
2023-04-22T16:11:20.217Z,19.18
2023-04-22T16:13:49.195Z,19.08
2023-04-22T16:16:18.371Z,19.04
2023-04-22T16:18:49.159Z,18.82
2023-04-22T16:21:18.509Z,18.65
2023-04-22T16:23:48.658Z,18.20
2023-04-22T16:26:19.898Z,19.09
2023-04-22T16:28:48.626Z,19.16
2023-04-22T16:31:22.876Z,18.94
2023-04-22T16:33:52.920Z,19.32
2023-04-22T16:36:21.634Z,20.84
2023-04-22T16:38:50.659Z,21.62
2023-04-22T16:41:21.649Z,21.42
2023-04-22T16:43:50.701Z,21.99
2023-04-22T16:46:20.506Z,22.03
2023-04-22T16:48:49.515Z,21.67
2023-04-22T16:51:18.484Z,21.73
2023-04-22T16:53:48.631Z,23.51
2023-04-22T16:56:18.209Z,25.08
2023-04-22T16:58:48.160Z,26.05
2023-04-22T17:01:17.165Z,27.57
2023-04-22T17:03:46.501Z,28.93
2023-04-22T17:06:15.590Z,30.11
2023-04-22T17:08:44.696Z,31.13
2023-04-22T17:11:14.667Z,31.89
2023-04-22T17:13:43.261Z,31.75
2023-04-22T17:16:13.887Z,31.39
2023-04-22T17:18:42.963Z,30.49
2023-04-22T17:21:13.098Z,30.17
2023-04-22T17:23:42.000Z,31.97
2023-04-22T17:26:11.131Z,31.92
2023-04-22T17:28:39.823Z,33.18
2023-04-22T17:31:09.170Z,33.61
2023-04-22T17:33:40.989Z,34.74
2023-04-22T17:36:10.118Z,35.61
2023-04-22T17:38:41.052Z,35.51
2023-04-22T17:41:10.354Z,36.23
2023-04-22T17:43:38.939Z,36.96
2023-04-22T17:46:09.327Z,37.63
2023-04-22T17:48:41.162Z,37.69
2023-04-22T17:51:10.389Z,39.27
2023-04-22T17:53:41.108Z,40.05
2023-04-22T17:56:10.541Z,41.24
2023-04-22T17:58:39.360Z,41.76
2023-04-22T18:01:08.713Z,41.98
2023-04-22T18:03:40.258Z,44.04
2023-04-22T18:06:09.552Z,44.64
2023-04-22T18:08:38.608Z,44.57
2023-04-22T18:11:07.708Z,46.65
2023-04-22T18:13:36.890Z,47.99
2023-04-22T18:16:06.455Z,49.80
2023-04-22T18:18:35.595Z,50.15
2023-04-22T18:21:06.160Z,50.62
2023-04-22T18:23:35.854Z,49.93
2023-04-22T18:26:09.873Z,51.17
2023-04-22T18:28:41.284Z,49.00
2023-04-22T18:31:10.409Z,53.26
2023-04-22T18:33:40.763Z,54.67
2023-04-22T18:36:11.752Z,54.05
2023-04-22T18:38:42.078Z,53.41
2023-04-22T18:41:13.058Z,56.96
2023-04-22T18:43:41.574Z,55.37
2023-04-22T18:46:10.820Z,57.02
2023-04-22T18:48:39.969Z,56.72
2023-04-22T18:51:10.463Z,58.43
2023-04-22T18:53:39.669Z,58.09
2023-04-22T18:56:08.750Z,57.89
2023-04-22T18:58:37.401Z,56.20
2023-04-22T19:01:07.059Z,56.00
2023-04-22T19:03:37.215Z,56.19
2023-04-22T19:06:07.134Z,60.39
2023-04-22T19:08:40.162Z,61.39
2023-04-22T19:11:09.324Z,61.05
2023-04-22T19:13:37.933Z,62.76
2023-04-22T19:16:07.849Z,58.37
2023-04-22T19:18:36.954Z,60.32
2023-04-22T19:21:07.083Z,59.31
2023-04-22T19:23:38.236Z,60.61
2023-04-22T19:26:09.529Z,64.72
2023-04-22T19:28:38.286Z,64.16
2023-04-22T19:31:09.156Z,63.97
2023-04-22T19:33:38.205Z,64.42
2023-04-22T19:36:07.421Z,63.10
2023-04-22T19:38:37.864Z,64.23
2023-04-22T19:41:08.944Z,63.74
2023-04-22T19:43:38.051Z,63.45
2023-04-22T19:46:07.039Z,65.10
2023-04-22T19:48:37.508Z,65.38
2023-04-22T19:51:06.769Z,65.88
2023-04-22T19:53:38.016Z,65.94
2023-04-22T19:56:07.197Z,65.02
2023-04-22T19:58:36.598Z,65.36
2023-04-22T20:01:06.003Z,64.28
2023-04-22T20:03:35.766Z,64.33
2023-04-22T20:06:07.794Z,64.06
2023-04-22T20:08:41.961Z,65.85
2023-04-22T20:11:11.593Z,75.98
2023-04-22T20:13:42.383Z,77.85
2023-04-22T20:16:11.978Z,81.71
2023-04-22T20:18:41.217Z,83.83
2023-04-22T20:21:10.571Z,82.64
2023-04-22T20:23:41.420Z,78.17
2023-04-22T20:26:10.781Z,76.08
2023-04-22T20:28:46.147Z,73.47
2023-04-22T20:31:18.458Z,73.53
2023-04-22T20:33:48.421Z,73.11
2023-04-22T20:36:18.902Z,74.98
2023-04-22T20:38:49.054Z,74.53
2023-04-22T20:41:20.285Z,77.00
2023-04-22T20:43:48.898Z,74.03
2023-04-22T20:46:18.808Z,72.74
2023-04-22T20:48:48.704Z,72.23
2023-04-22T20:51:17.991Z,73.64
2023-04-22T20:53:48.529Z,74.55
2023-04-22T20:56:17.630Z,74.71
2023-04-22T20:58:46.158Z,76.21
2023-04-22T21:01:16.681Z,77.16
2023-04-22T21:03:45.938Z,80.67
2023-04-22T21:06:15.343Z,83.55
2023-04-22T21:08:44.695Z,84.57
2023-04-22T21:11:15.865Z,87.55
2023-04-22T21:13:45.276Z,87.79
2023-04-22T21:16:15.407Z,91.22
2023-04-22T21:18:44.916Z,95.44
2023-04-22T21:21:15.819Z,93.97
2023-04-22T21:23:45.431Z,89.75
2023-04-22T21:26:16.758Z,89.26
2023-04-22T21:28:45.801Z,87.04
2023-04-22T21:31:15.570Z,84.57
2023-04-22T21:33:44.598Z,83.12
2023-04-22T21:36:13.688Z,83.37
2023-04-22T21:38:42.975Z,83.00
2023-04-22T21:41:12.061Z,85.17
2023-04-22T21:43:42.181Z,85.26
2023-04-22T21:46:11.342Z,84.52
2023-04-22T21:48:40.525Z,83.38
2023-04-22T21:51:10.036Z,83.96
2023-04-22T21:53:38.970Z,84.12
2023-04-22T21:56:08.266Z,85.39
2023-04-22T21:58:36.794Z,84.10
2023-04-22T22:01:07.664Z,83.61
2023-04-22T22:03:38.299Z,84.20
2023-04-22T22:06:07.663Z,84.06
2023-04-22T22:08:36.843Z,84.13
2023-04-22T22:11:07.024Z,85.42
2023-04-22T22:13:36.560Z,85.60
2023-04-22T22:16:07.309Z,87.19
2023-04-22T22:18:37.000Z,87.52
2023-04-22T22:21:06.114Z,88.00
2023-04-22T22:23:35.181Z,87.87
2023-04-22T22:26:04.369Z,86.59
2023-04-22T22:28:33.115Z,88.03
2023-04-22T22:31:02.625Z,87.99
2023-04-22T22:33:34.590Z,89.28
2023-04-22T22:36:03.782Z,90.60
2023-04-22T22:38:32.773Z,92.12
2023-04-22T22:41:01.791Z,93.06
2023-04-22T22:43:30.466Z,93.52
2023-04-22T22:45:59.820Z,94.45
2023-04-22T22:48:28.910Z,94.60
2023-04-22T22:50:59.439Z,95.75
2023-04-22T22:53:28.446Z,96.74
2023-04-22T22:55:56.930Z,95.21
2023-04-22T22:58:26.020Z,97.65
2023-04-22T23:00:54.985Z,98.53
2023-04-22T23:03:24.642Z,100.00
2023-04-22T23:05:53.636Z,100.00
2023-04-22T23:08:24.147Z,100.00
2023-04-22T23:10:52.870Z,100.00
2023-04-22T23:13:22.188Z,100.00
2023-04-22T23:15:51.220Z,100.00
2023-04-22T23:18:20.657Z,100.00
2023-04-22T23:20:50.346Z,100.00
2023-04-22T23:23:20.095Z,100.00
2023-04-22T23:25:50.913Z,100.00
2023-04-22T23:28:20.514Z,100.00
2023-04-22T23:30:50.648Z,100.00
2023-04-22T23:33:25.166Z,100.00
2023-04-22T23:35:56.677Z,100.00
2023-04-22T23:38:25.682Z,100.00
2023-04-22T23:40:55.646Z,100.00
2023-04-22T23:43:24.722Z,100.00
2023-04-22T23:45:53.798Z,100.00
2023-04-22T23:48:23.153Z,100.00
2023-04-22T23:50:52.425Z,100.00
2023-04-22T23:53:21.455Z,100.00
2023-04-22T23:55:50.447Z,100.00
2023-04-22T23:58:21.341Z,100.00
